sensor_id;sensor_type;location;lat;lon;timestamp;P1;durP1;ratioP1;P2;durP2;ratioP2
84084;SDS011;74175;41.730;44.734;2023-12-29T00:01:19;2.40;;;0.43;;
84084;SDS011;74175;41.730;44.734;2023-12-29T00:03:45;3.20;;;0.57;;
84084;SDS011;74175;41.730;44.734;2023-12-29T00:06:11;2.97;;;0.45;;
84084;SDS011;74175;41.730;44.734;2023-12-29T00:08:37;2.53;;;0.50;;
84084;SDS011;74175;41.730;44.734;2023-12-29T00:11:03;2.83;;;0.47;;
84084;SDS011;74175;41.730;44.734;2023-12-29T00:13:30;3.00;;;0.40;;
84084;SDS011;74175;41.730;44.734;2023-12-29T00:15:56;2.05;;;0.40;;
84084;SDS011;74175;41.730;44.734;2023-12-29T00:18:22;2.58;;;0.30;;
84084;SDS011;74175;41.730;44.734;2023-12-29T00:20:49;2.42;;;0.30;;
84084;SDS011;74175;41.730;44.734;2023-12-29T00:23:15;2.90;;;0.40;;
84084;SDS011;74175;41.730;44.734;2023-12-29T00:25:41;3.13;;;0.40;;
84084;SDS011;74175;41.730;44.734;2023-12-29T00:28:08;2.80;;;0.60;;
84084;SDS011;74175;41.730;44.734;2023-12-29T00:30:37;4.82;;;0.50;;
84084;SDS011;74175;41.730;44.734;2023-12-29T00:33:04;3.10;;;0.40;;
84084;SDS011;74175;41.730;44.734;2023-12-29T00:35:30;2.13;;;0.30;;
84084;SDS011;74175;41.730;44.734;2023-12-29T00:37:56;2.37;;;0.47;;
84084;SDS011;74175;41.730;44.734;2023-12-29T00:40:23;2.63;;;0.45;;
84084;SDS011;74175;41.730;44.734;2023-12-29T00:42:49;3.58;;;0.40;;
84084;SDS011;74175;41.730;44.734;2023-12-29T00:45:15;3.40;;;0.50;;
84084;SDS011;74175;41.730;44.734;2023-12-29T00:47:44;2.13;;;0.30;;
84084;SDS011;74175;41.730;44.734;2023-12-29T00:50:10;3.38;;;0.50;;
84084;SDS011;74175;41.730;44.734;2023-12-29T00:52:36;3.75;;;0.60;;
84084;SDS011;74175;41.730;44.734;2023-12-29T00:55:03;2.75;;;0.50;;
84084;SDS011;74175;41.730;44.734;2023-12-29T00:57:29;3.03;;;0.70;;
84084;SDS011;74175;41.730;44.734;2023-12-29T00:59:55;2.83;;;0.50;;
84084;SDS011;74175;41.730;44.734;2023-12-29T01:02:21;3.45;;;0.40;;
84084;SDS011;74175;41.730;44.734;2023-12-29T01:04:48;2.58;;;0.47;;
84084;SDS011;74175;41.730;44.734;2023-12-29T01:07:14;3.88;;;0.40;;
84084;SDS011;74175;41.730;44.734;2023-12-29T01:09:40;2.95;;;0.60;;
84084;SDS011;74175;41.730;44.734;2023-12-29T01:12:07;3.67;;;0.47;;
84084;SDS011;74175;41.730;44.734;2023-12-29T01:14:33;4.05;;;0.60;;
84084;SDS011;74175;41.730;44.734;2023-12-29T01:16:59;2.88;;;0.40;;
84084;SDS011;74175;41.730;44.734;2023-12-29T01:19:25;2.67;;;0.40;;
84084;SDS011;74175;41.730;44.734;2023-12-29T01:21:51;3.90;;;0.50;;
84084;SDS011;74175;41.730;44.734;2023-12-29T01:24:17;3.90;;;0.50;;
84084;SDS011;74175;41.730;44.734;2023-12-29T01:26:43;4.18;;;0.80;;
84084;SDS011;74175;41.730;44.734;2023-12-29T01:29:09;2.85;;;0.40;;
84084;SDS011;74175;41.730;44.734;2023-12-29T01:31:35;2.45;;;0.40;;
84084;SDS011;74175;41.730;44.734;2023-12-29T01:34:01;3.53;;;0.50;;
84084;SDS011;74175;41.730;44.734;2023-12-29T01:36:27;2.92;;;0.60;;
84084;SDS011;74175;41.730;44.734;2023-12-29T01:38:54;2.77;;;0.40;;
84084;SDS011;74175;41.730;44.734;2023-12-29T01:41:22;2.40;;;0.50;;
84084;SDS011;74175;41.730;44.734;2023-12-29T01:44:02;2.92;;;0.52;;
84084;SDS011;74175;41.730;44.734;2023-12-29T01:46:44;4.32;;;0.47;;
84084;SDS011;74175;41.730;44.734;2023-12-29T01:49:13;3.05;;;0.38;;
84084;SDS011;74175;41.730;44.734;2023-12-29T01:51:41;3.90;;;0.60;;
84084;SDS011;74175;41.730;44.734;2023-12-29T01:54:08;2.50;;;0.57;;
84084;SDS011;74175;41.730;44.734;2023-12-29T01:56:54;2.58;;;0.47;;
84084;SDS011;74175;41.730;44.734;2023-12-29T01:59:25;3.03;;;0.50;;
84084;SDS011;74175;41.730;44.734;2023-12-29T02:01:53;2.83;;;0.50;;
84084;SDS011;74175;41.730;44.734;2023-12-29T02:04:26;3.25;;;0.63;;
84084;SDS011;74175;41.730;44.734;2023-12-29T02:06:52;2.40;;;0.43;;
84084;SDS011;74175;41.730;44.734;2023-12-29T02:09:19;4.30;;;0.60;;
84084;SDS011;74175;41.730;44.734;2023-12-29T02:11:45;3.70;;;0.57;;
84084;SDS011;74175;41.730;44.734;2023-12-29T02:14:12;2.72;;;0.50;;
84084;SDS011;74175;41.730;44.734;2023-12-29T02:19:08;3.78;;;0.60;;
84084;SDS011;74175;41.730;44.734;2023-12-29T02:21:42;4.07;;;0.60;;
84084;SDS011;74175;41.730;44.734;2023-12-29T02:24:08;2.70;;;0.60;;
84084;SDS011;74175;41.730;44.734;2023-12-29T02:26:35;3.28;;;0.50;;
84084;SDS011;74175;41.730;44.734;2023-12-29T02:29:02;3.47;;;0.55;;
84084;SDS011;74175;41.730;44.734;2023-12-29T02:31:30;3.00;;;0.50;;
84084;SDS011;74175;41.730;44.734;2023-12-29T02:33:59;3.97;;;0.60;;
84084;SDS011;74175;41.730;44.734;2023-12-29T02:36:26;3.27;;;0.50;;
84084;SDS011;74175;41.730;44.734;2023-12-29T02:38:52;5.50;;;0.60;;
84084;SDS011;74175;41.730;44.734;2023-12-29T02:41:18;3.58;;;0.68;;
84084;SDS011;74175;41.730;44.734;2023-12-29T02:43:44;2.47;;;0.40;;
84084;SDS011;74175;41.730;44.734;2023-12-29T02:46:10;6.72;;;0.60;;
84084;SDS011;74175;41.730;44.734;2023-12-29T02:48:40;3.33;;;0.43;;
84084;SDS011;74175;41.730;44.734;2023-12-29T02:51:06;2.67;;;0.60;;
84084;SDS011;74175;41.730;44.734;2023-12-29T02:53:34;4.40;;;0.68;;
84084;SDS011;74175;41.730;44.734;2023-12-29T02:56:00;3.55;;;0.60;;
84084;SDS011;74175;41.730;44.734;2023-12-29T02:58:27;2.50;;;0.50;;
84084;SDS011;74175;41.730;44.734;2023-12-29T03:00:53;4.10;;;0.80;;
84084;SDS011;74175;41.730;44.734;2023-12-29T03:03:19;2.63;;;0.50;;
84084;SDS011;74175;41.730;44.734;2023-12-29T03:05:45;6.05;;;0.70;;
84084;SDS011;74175;41.730;44.734;2023-12-29T03:08:11;3.10;;;0.93;;
84084;SDS011;74175;41.730;44.734;2023-12-29T03:10:39;3.40;;;0.50;;
84084;SDS011;74175;41.730;44.734;2023-12-29T03:13:05;3.88;;;0.50;;
84084;SDS011;74175;41.730;44.734;2023-12-29T03:15:31;4.13;;;0.50;;
84084;SDS011;74175;41.730;44.734;2023-12-29T03:17:57;3.23;;;0.50;;
84084;SDS011;74175;41.730;44.734;2023-12-29T03:20:23;2.67;;;0.40;;
84084;SDS011;74175;41.730;44.734;2023-12-29T03:22:49;2.88;;;0.52;;
84084;SDS011;74175;41.730;44.734;2023-12-29T03:25:15;2.85;;;0.55;;
84084;SDS011;74175;41.730;44.734;2023-12-29T03:27:41;2.95;;;0.50;;
84084;SDS011;74175;41.730;44.734;2023-12-29T03:30:07;5.60;;;0.90;;
84084;SDS011;74175;41.730;44.734;2023-12-29T03:32:33;3.15;;;0.50;;
84084;SDS011;74175;41.730;44.734;2023-12-29T03:35:00;3.00;;;0.40;;
84084;SDS011;74175;41.730;44.734;2023-12-29T03:37:26;4.05;;;1.00;;
84084;SDS011;74175;41.730;44.734;2023-12-29T03:39:52;2.92;;;0.60;;
84084;SDS011;74175;41.730;44.734;2023-12-29T03:42:18;4.85;;;0.65;;
84084;SDS011;74175;41.730;44.734;2023-12-29T03:44:44;3.70;;;0.50;;
84084;SDS011;74175;41.730;44.734;2023-12-29T03:47:10;3.53;;;0.63;;
84084;SDS011;74175;41.730;44.734;2023-12-29T03:49:36;4.07;;;0.70;;
84084;SDS011;74175;41.730;44.734;2023-12-29T03:52:02;2.47;;;0.50;;
84084;SDS011;74175;41.730;44.734;2023-12-29T03:54:29;3.72;;;0.57;;
84084;SDS011;74175;41.730;44.734;2023-12-29T03:56:55;4.13;;;0.53;;
84084;SDS011;74175;41.730;44.734;2023-12-29T03:59:21;3.15;;;0.50;;
84084;SDS011;74175;41.730;44.734;2023-12-29T04:01:47;3.13;;;0.60;;
84084;SDS011;74175;41.730;44.734;2023-12-29T04:04:13;2.67;;;0.40;;
84084;SDS011;74175;41.730;44.734;2023-12-29T04:06:40;2.70;;;0.50;;
84084;SDS011;74175;41.730;44.734;2023-12-29T04:09:06;3.13;;;0.50;;
84084;SDS011;74175;41.730;44.734;2023-12-29T04:11:33;4.22;;;0.77;;
84084;SDS011;74175;41.730;44.734;2023-12-29T04:14:00;3.35;;;0.60;;
84084;SDS011;74175;41.730;44.734;2023-12-29T04:16:26;4.53;;;0.50;;
84084;SDS011;74175;41.730;44.734;2023-12-29T04:18:54;3.80;;;0.65;;
84084;SDS011;74175;41.730;44.734;2023-12-29T04:21:20;4.63;;;0.60;;
84084;SDS011;74175;41.730;44.734;2023-12-29T04:23:46;4.53;;;0.80;;
84084;SDS011;74175;41.730;44.734;2023-12-29T04:26:12;3.67;;;0.57;;
84084;SDS011;74175;41.730;44.734;2023-12-29T04:28:38;4.28;;;0.90;;
84084;SDS011;74175;41.730;44.734;2023-12-29T04:31:04;4.07;;;0.70;;
84084;SDS011;74175;41.730;44.734;2023-12-29T04:33:30;3.65;;;0.82;;
84084;SDS011;74175;41.730;44.734;2023-12-29T04:35:57;4.03;;;0.50;;
84084;SDS011;74175;41.730;44.734;2023-12-29T04:38:24;3.75;;;0.50;;
84084;SDS011;74175;41.730;44.734;2023-12-29T04:40:51;4.25;;;0.80;;
84084;SDS011;74175;41.730;44.734;2023-12-29T04:43:17;5.03;;;0.90;;
84084;SDS011;74175;41.730;44.734;2023-12-29T04:45:43;3.40;;;0.90;;
84084;SDS011;74175;41.730;44.734;2023-12-29T04:48:09;5.22;;;1.10;;
84084;SDS011;74175;41.730;44.734;2023-12-29T04:50:35;4.43;;;0.70;;
84084;SDS011;74175;41.730;44.734;2023-12-29T04:53:04;3.92;;;0.82;;
84084;SDS011;74175;41.730;44.734;2023-12-29T04:55:32;4.65;;;0.70;;
84084;SDS011;74175;41.730;44.734;2023-12-29T04:57:58;4.40;;;0.95;;
84084;SDS011;74175;41.730;44.734;2023-12-29T05:00:24;3.33;;;0.50;;
84084;SDS011;74175;41.730;44.734;2023-12-29T05:02:50;5.50;;;1.20;;
84084;SDS011;74175;41.730;44.734;2023-12-29T05:05:16;3.85;;;0.70;;
84084;SDS011;74175;41.730;44.734;2023-12-29T05:07:42;4.40;;;0.70;;
84084;SDS011;74175;41.730;44.734;2023-12-29T05:10:09;3.90;;;0.73;;
84084;SDS011;74175;41.730;44.734;2023-12-29T05:12:35;3.05;;;0.60;;
84084;SDS011;74175;41.730;44.734;2023-12-29T05:15:01;3.28;;;0.57;;
84084;SDS011;74175;41.730;44.734;2023-12-29T05:17:28;3.43;;;0.70;;
84084;SDS011;74175;41.730;44.734;2023-12-29T05:19:54;3.67;;;0.70;;
84084;SDS011;74175;41.730;44.734;2023-12-29T05:22:20;4.53;;;0.93;;
84084;SDS011;74175;41.730;44.734;2023-12-29T05:24:46;4.32;;;0.90;;
84084;SDS011;74175;41.730;44.734;2023-12-29T05:27:12;5.60;;;0.77;;
84084;SDS011;74175;41.730;44.734;2023-12-29T05:29:38;4.57;;;0.98;;
84084;SDS011;74175;41.730;44.734;2023-12-29T05:32:05;4.80;;;1.00;;
84084;SDS011;74175;41.730;44.734;2023-12-29T05:34:31;4.00;;;0.70;;
84084;SDS011;74175;41.730;44.734;2023-12-29T05:36:57;4.38;;;0.90;;
84084;SDS011;74175;41.730;44.734;2023-12-29T05:39:23;4.43;;;1.10;;
84084;SDS011;74175;41.730;44.734;2023-12-29T05:41:50;3.92;;;1.00;;
84084;SDS011;74175;41.730;44.734;2023-12-29T05:44:16;4.32;;;0.90;;
84084;SDS011;74175;41.730;44.734;2023-12-29T05:46:45;4.35;;;1.10;;
84084;SDS011;74175;41.730;44.734;2023-12-29T05:49:12;5.05;;;1.13;;
84084;SDS011;74175;41.730;44.734;2023-12-29T05:51:38;3.65;;;0.70;;
84084;SDS011;74175;41.730;44.734;2023-12-29T05:54:05;3.33;;;0.60;;
84084;SDS011;74175;41.730;44.734;2023-12-29T05:56:31;2.85;;;0.60;;
84084;SDS011;74175;41.730;44.734;2023-12-29T05:58:57;4.00;;;0.60;;
84084;SDS011;74175;41.730;44.734;2023-12-29T06:01:23;4.45;;;0.85;;
84084;SDS011;74175;41.730;44.734;2023-12-29T06:03:49;4.45;;;0.90;;
84084;SDS011;74175;41.730;44.734;2023-12-29T06:06:16;5.47;;;1.25;;
84084;SDS011;74175;41.730;44.734;2023-12-29T06:08:42;3.85;;;1.15;;
84084;SDS011;74175;41.730;44.734;2023-12-29T06:11:08;4.55;;;1.40;;
84084;SDS011;74175;41.730;44.734;2023-12-29T06:13:34;3.83;;;0.93;;
84084;SDS011;74175;41.730;44.734;2023-12-29T06:16:03;4.47;;;1.50;;
84084;SDS011;74175;41.730;44.734;2023-12-29T06:18:31;5.53;;;1.20;;
84084;SDS011;74175;41.730;44.734;2023-12-29T06:20:57;3.50;;;1.00;;
84084;SDS011;74175;41.730;44.734;2023-12-29T06:23:24;3.90;;;1.10;;
84084;SDS011;74175;41.730;44.734;2023-12-29T06:25:51;5.72;;;1.20;;
84084;SDS011;74175;41.730;44.734;2023-12-29T06:28:17;4.30;;;1.10;;
84084;SDS011;74175;41.730;44.734;2023-12-29T06:30:43;6.82;;;1.30;;
84084;SDS011;74175;41.730;44.734;2023-12-29T06:33:09;5.03;;;1.20;;
84084;SDS011;74175;41.730;44.734;2023-12-29T06:35:36;6.78;;;1.45;;
84084;SDS011;74175;41.730;44.734;2023-12-29T06:38:05;4.57;;;1.50;;
84084;SDS011;74175;41.730;44.734;2023-12-29T06:40:31;5.13;;;1.30;;
84084;SDS011;74175;41.730;44.734;2023-12-29T06:42:57;7.63;;;1.20;;
84084;SDS011;74175;41.730;44.734;2023-12-29T06:45:23;5.50;;;1.50;;
84084;SDS011;74175;41.730;44.734;2023-12-29T06:47:49;5.18;;;1.20;;
84084;SDS011;74175;41.730;44.734;2023-12-29T06:50:16;8.60;;;1.75;;
84084;SDS011;74175;41.730;44.734;2023-12-29T06:52:43;3.70;;;0.93;;
84084;SDS011;74175;41.730;44.734;2023-12-29T06:55:09;5.07;;;1.45;;
84084;SDS011;74175;41.730;44.734;2023-12-29T06:57:35;5.75;;;1.40;;
84084;SDS011;74175;41.730;44.734;2023-12-29T07:00:02;6.75;;;1.10;;
84084;SDS011;74175;41.730;44.734;2023-12-29T07:02:29;3.50;;;0.73;;
84084;SDS011;74175;41.730;44.734;2023-12-29T07:04:56;6.93;;;1.80;;
84084;SDS011;74175;41.730;44.734;2023-12-29T07:07:22;4.43;;;1.60;;
84084;SDS011;74175;41.730;44.734;2023-12-29T07:09:48;4.40;;;1.38;;
84084;SDS011;74175;41.730;44.734;2023-12-29T07:12:17;4.53;;;1.38;;
84084;SDS011;74175;41.730;44.734;2023-12-29T07:14:43;3.47;;;1.00;;
84084;SDS011;74175;41.730;44.734;2023-12-29T07:17:10;4.93;;;1.25;;
84084;SDS011;74175;41.730;44.734;2023-12-29T07:19:36;5.15;;;1.20;;
84084;SDS011;74175;41.730;44.734;2023-12-29T07:22:07;7.35;;;1.80;;
84084;SDS011;74175;41.730;44.734;2023-12-29T07:24:35;3.47;;;0.80;;
84084;SDS011;74175;41.730;44.734;2023-12-29T07:27:01;4.70;;;1.40;;
84084;SDS011;74175;41.730;44.734;2023-12-29T07:29:28;5.03;;;1.20;;
84084;SDS011;74175;41.730;44.734;2023-12-29T07:31:54;3.70;;;1.00;;
84084;SDS011;74175;41.730;44.734;2023-12-29T07:34:20;4.80;;;1.00;;
84084;SDS011;74175;41.730;44.734;2023-12-29T07:36:46;4.32;;;1.45;;
84084;SDS011;74175;41.730;44.734;2023-12-29T07:39:13;4.13;;;1.10;;
84084;SDS011;74175;41.730;44.734;2023-12-29T07:41:40;7.72;;;1.55;;
84084;SDS011;74175;41.730;44.734;2023-12-29T07:44:09;5.07;;;1.00;;
84084;SDS011;74175;41.730;44.734;2023-12-29T07:46:36;6.05;;;1.38;;
84084;SDS011;74175;41.730;44.734;2023-12-29T07:49:03;3.95;;;1.00;;
84084;SDS011;74175;41.730;44.734;2023-12-29T07:51:29;6.30;;;1.20;;
84084;SDS011;74175;41.730;44.734;2023-12-29T07:53:56;4.85;;;1.27;;
84084;SDS011;74175;41.730;44.734;2023-12-29T07:56:22;5.60;;;1.30;;
84084;SDS011;74175;41.730;44.734;2023-12-29T07:58:48;5.43;;;1.50;;
84084;SDS011;74175;41.730;44.734;2023-12-29T08:01:14;9.85;;;2.13;;
84084;SDS011;74175;41.730;44.734;2023-12-29T08:03:40;5.63;;;1.80;;
84084;SDS011;74175;41.730;44.734;2023-12-29T08:06:06;5.78;;;2.35;;
84084;SDS011;74175;41.730;44.734;2023-12-29T08:08:32;6.88;;;1.70;;
84084;SDS011;74175;41.730;44.734;2023-12-29T08:10:58;6.97;;;2.63;;
84084;SDS011;74175;41.730;44.734;2023-12-29T08:13:24;4.70;;;1.45;;
84084;SDS011;74175;41.730;44.734;2023-12-29T08:15:51;6.28;;;1.83;;
84084;SDS011;74175;41.730;44.734;2023-12-29T08:18:17;5.32;;;1.92;;
84084;SDS011;74175;41.730;44.734;2023-12-29T08:20:43;8.02;;;2.47;;
84084;SDS011;74175;41.730;44.734;2023-12-29T08:23:10;6.95;;;2.60;;
84084;SDS011;74175;41.730;44.734;2023-12-29T08:25:36;8.88;;;2.60;;
84084;SDS011;74175;41.730;44.734;2023-12-29T08:28:02;8.37;;;3.10;;
84084;SDS011;74175;41.730;44.734;2023-12-29T08:30:30;7.60;;;2.30;;
84084;SDS011;74175;41.730;44.734;2023-12-29T08:32:56;5.60;;;2.20;;
84084;SDS011;74175;41.730;44.734;2023-12-29T08:35:22;8.40;;;3.33;;
84084;SDS011;74175;41.730;44.734;2023-12-29T08:37:48;4.82;;;2.10;;
84084;SDS011;74175;41.730;44.734;2023-12-29T08:40:14;6.43;;;2.63;;
84084;SDS011;74175;41.730;44.734;2023-12-29T08:42:40;6.37;;;2.20;;
84084;SDS011;74175;41.730;44.734;2023-12-29T08:45:06;6.72;;;2.20;;
84084;SDS011;74175;41.730;44.734;2023-12-29T08:47:32;5.90;;;2.05;;
84084;SDS011;74175;41.730;44.734;2023-12-29T08:49:59;6.75;;;1.83;;
84084;SDS011;74175;41.730;44.734;2023-12-29T08:52:25;6.65;;;2.60;;
84084;SDS011;74175;41.730;44.734;2023-12-29T08:54:51;5.43;;;2.10;;
84084;SDS011;74175;41.730;44.734;2023-12-29T08:57:17;6.57;;;2.67;;
84084;SDS011;74175;41.730;44.734;2023-12-29T08:59:43;6.30;;;2.03;;
84084;SDS011;74175;41.730;44.734;2023-12-29T09:02:09;6.30;;;1.98;;
84084;SDS011;74175;41.730;44.734;2023-12-29T09:04:35;4.97;;;1.80;;
84084;SDS011;74175;41.730;44.734;2023-12-29T09:07:01;7.03;;;2.17;;
84084;SDS011;74175;41.730;44.734;2023-12-29T09:09:29;6.43;;;1.73;;
84084;SDS011;74175;41.730;44.734;2023-12-29T09:11:55;6.38;;;1.92;;
84084;SDS011;74175;41.730;44.734;2023-12-29T09:14:22;6.47;;;1.58;;
84084;SDS011;74175;41.730;44.734;2023-12-29T09:16:48;8.23;;;2.22;;
84084;SDS011;74175;41.730;44.734;2023-12-29T09:19:14;11.90;;;3.40;;
84084;SDS011;74175;41.730;44.734;2023-12-29T09:21:40;8.98;;;2.45;;
84084;SDS011;74175;41.730;44.734;2023-12-29T09:24:09;5.53;;;1.90;;
84084;SDS011;74175;41.730;44.734;2023-12-29T09:26:35;5.35;;;2.03;;
84084;SDS011;74175;41.730;44.734;2023-12-29T09:29:02;6.63;;;1.83;;
84084;SDS011;74175;41.730;44.734;2023-12-29T09:31:28;6.07;;;2.20;;
84084;SDS011;74175;41.730;44.734;2023-12-29T09:33:54;4.50;;;1.50;;
84084;SDS011;74175;41.730;44.734;2023-12-29T09:36:22;7.07;;;1.58;;
84084;SDS011;74175;41.730;44.734;2023-12-29T09:38:50;7.50;;;2.03;;
84084;SDS011;74175;41.730;44.734;2023-12-29T09:41:17;8.68;;;2.40;;
84084;SDS011;74175;41.730;44.734;2023-12-29T09:43:43;5.95;;;2.15;;
84084;SDS011;74175;41.730;44.734;2023-12-29T09:46:14;4.30;;;1.70;;
84084;SDS011;74175;41.730;44.734;2023-12-29T09:48:45;6.63;;;2.17;;
84084;SDS011;74175;41.730;44.734;2023-12-29T09:51:13;9.00;;;2.63;;
84084;SDS011;74175;41.730;44.734;2023-12-29T09:53:41;6.78;;;1.80;;
84084;SDS011;74175;41.730;44.734;2023-12-29T09:56:08;5.47;;;1.92;;
84084;SDS011;74175;41.730;44.734;2023-12-29T09:58:35;5.35;;;1.60;;
84084;SDS011;74175;41.730;44.734;2023-12-29T10:01:04;7.03;;;2.40;;
84084;SDS011;74175;41.730;44.734;2023-12-29T10:03:30;6.85;;;1.90;;
84084;SDS011;74175;41.730;44.734;2023-12-29T10:06:00;6.43;;;2.00;;
84084;SDS011;74175;41.730;44.734;2023-12-29T10:08:29;5.72;;;2.15;;
84084;SDS011;74175;41.730;44.734;2023-12-29T10:10:58;4.85;;;2.03;;
84084;SDS011;74175;41.730;44.734;2023-12-29T10:13:26;5.50;;;1.60;;
84084;SDS011;74175;41.730;44.734;2023-12-29T10:15:56;6.93;;;2.78;;
84084;SDS011;74175;41.730;44.734;2023-12-29T10:21:26;4.80;;;1.83;;
84084;SDS011;74175;41.730;44.734;2023-12-29T10:23:58;6.73;;;2.23;;
84084;SDS011;74175;41.730;44.734;2023-12-29T10:26:29;5.85;;;2.30;;
84084;SDS011;74175;41.730;44.734;2023-12-29T10:28:56;6.32;;;2.28;;
84084;SDS011;74175;41.730;44.734;2023-12-29T10:31:23;6.00;;;2.25;;
84084;SDS011;74175;41.730;44.734;2023-12-29T10:33:49;6.53;;;2.22;;
84084;SDS011;74175;41.730;44.734;2023-12-29T10:36:17;6.32;;;2.28;;
84084;SDS011;74175;41.730;44.734;2023-12-29T10:38:43;7.78;;;2.58;;
84084;SDS011;74175;41.730;44.734;2023-12-29T10:41:18;7.28;;;2.20;;
84084;SDS011;74175;41.730;44.734;2023-12-29T10:43:45;4.67;;;1.97;;
84084;SDS011;74175;41.730;44.734;2023-12-29T10:46:18;10.18;;;2.33;;
84084;SDS011;74175;41.730;44.734;2023-12-29T10:48:46;5.38;;;2.00;;
84084;SDS011;74175;41.730;44.734;2023-12-29T10:51:12;6.47;;;1.90;;
84084;SDS011;74175;41.730;44.734;2023-12-29T10:53:38;6.57;;;2.22;;
84084;SDS011;74175;41.730;44.734;2023-12-29T10:56:05;7.43;;;2.45;;
84084;SDS011;74175;41.730;44.734;2023-12-29T10:58:42;5.30;;;1.70;;
84084;SDS011;74175;41.730;44.734;2023-12-29T11:01:13;6.77;;;2.00;;
84084;SDS011;74175;41.730;44.734;2023-12-29T11:03:41;6.93;;;2.13;;
84084;SDS011;74175;41.730;44.734;2023-12-29T11:06:07;5.97;;;2.30;;
84084;SDS011;74175;41.730;44.734;2023-12-29T11:08:35;5.18;;;1.88;;
84084;SDS011;74175;41.730;44.734;2023-12-29T11:11:02;6.50;;;2.00;;
84084;SDS011;74175;41.730;44.734;2023-12-29T11:13:29;5.47;;;1.55;;
84084;SDS011;74175;41.730;44.734;2023-12-29T11:15:56;5.77;;;1.50;;
84084;SDS011;74175;41.730;44.734;2023-12-29T11:18:23;3.85;;;1.40;;
84084;SDS011;74175;41.730;44.734;2023-12-29T11:20:50;5.25;;;1.50;;
84084;SDS011;74175;41.730;44.734;2023-12-29T11:23:16;5.80;;;2.30;;
84084;SDS011;74175;41.730;44.734;2023-12-29T11:25:44;7.07;;;2.88;;
84084;SDS011;74175;41.730;44.734;2023-12-29T11:28:15;8.15;;;3.10;;
84084;SDS011;74175;41.730;44.734;2023-12-29T11:30:42;6.47;;;2.47;;
84084;SDS011;74175;41.730;44.734;2023-12-29T11:33:24;7.38;;;2.22;;
84084;SDS011;74175;41.730;44.734;2023-12-29T11:39:04;7.75;;;3.22;;
84084;SDS011;74175;41.730;44.734;2023-12-29T11:41:42;9.30;;;4.38;;
84084;SDS011;74175;41.730;44.734;2023-12-29T11:44:45;8.00;;;3.25;;
84084;SDS011;74175;41.730;44.734;2023-12-29T11:50:04;4.30;;;1.20;;
84084;SDS011;74175;41.730;44.734;2023-12-29T11:52:38;3.55;;;1.00;;
84084;SDS011;74175;41.730;44.734;2023-12-29T11:55:14;6.97;;;1.88;;
84084;SDS011;74175;41.730;44.734;2023-12-29T11:57:41;5.00;;;1.80;;
84084;SDS011;74175;41.730;44.734;2023-12-29T12:00:08;5.75;;;1.85;;
84084;SDS011;74175;41.730;44.734;2023-12-29T12:02:38;7.45;;;2.47;;
84084;SDS011;74175;41.730;44.734;2023-12-29T12:05:04;4.73;;;1.90;;
84084;SDS011;74175;41.730;44.734;2023-12-29T12:12:47;5.85;;;1.98;;
84084;SDS011;74175;41.730;44.734;2023-12-29T12:17:53;6.15;;;1.83;;
84084;SDS011;74175;41.730;44.734;2023-12-29T12:20:19;4.47;;;1.40;;
84084;SDS011;74175;41.730;44.734;2023-12-29T12:22:47;6.25;;;2.08;;
84084;SDS011;74175;41.730;44.734;2023-12-29T12:25:16;5.10;;;1.50;;
84084;SDS011;74175;41.730;44.734;2023-12-29T12:27:42;5.00;;;1.48;;
84084;SDS011;74175;41.730;44.734;2023-12-29T12:30:09;5.88;;;1.75;;
84084;SDS011;74175;41.730;44.734;2023-12-29T12:32:35;7.67;;;1.60;;
84084;SDS011;74175;41.730;44.734;2023-12-29T12:35:01;5.43;;;1.80;;
84084;SDS011;74175;41.730;44.734;2023-12-29T12:37:29;6.80;;;1.70;;
84084;SDS011;74175;41.730;44.734;2023-12-29T12:39:55;5.40;;;1.60;;
84084;SDS011;74175;41.730;44.734;2023-12-29T12:42:22;7.47;;;2.78;;
84084;SDS011;74175;41.730;44.734;2023-12-29T12:44:56;4.85;;;1.50;;
84084;SDS011;74175;41.730;44.734;2023-12-29T12:47:36;4.67;;;1.30;;
84084;SDS011;74175;41.730;44.734;2023-12-29T12:50:04;5.03;;;1.42;;
84084;SDS011;74175;41.730;44.734;2023-12-29T12:52:31;6.00;;;2.10;;
84084;SDS011;74175;41.730;44.734;2023-12-29T12:54:58;5.53;;;1.70;;
84084;SDS011;74175;41.730;44.734;2023-12-29T12:57:24;5.57;;;1.20;;
84084;SDS011;74175;41.730;44.734;2023-12-29T12:59:50;4.37;;;1.30;;
84084;SDS011;74175;41.730;44.734;2023-12-29T13:02:19;5.78;;;1.80;;
84084;SDS011;74175;41.730;44.734;2023-12-29T13:04:45;5.03;;;1.30;;
84084;SDS011;74175;41.730;44.734;2023-12-29T13:07:14;5.20;;;1.80;;
84084;SDS011;74175;41.730;44.734;2023-12-29T13:09:41;5.10;;;1.33;;
84084;SDS011;74175;41.730;44.734;2023-12-29T13:12:11;5.30;;;1.67;;
84084;SDS011;74175;41.730;44.734;2023-12-29T13:14:38;9.98;;;3.30;;
84084;SDS011;74175;41.730;44.734;2023-12-29T13:17:06;8.13;;;3.17;;
84084;SDS011;74175;41.730;44.734;2023-12-29T13:19:36;12.80;;;6.47;;
84084;SDS011;74175;41.730;44.734;2023-12-29T13:22:08;12.45;;;5.70;;
84084;SDS011;74175;41.730;44.734;2023-12-29T13:24:36;27.02;;;13.07;;
84084;SDS011;74175;41.730;44.734;2023-12-29T13:27:08;81.22;;;27.83;;
84084;SDS011;74175;41.730;44.734;2023-12-29T13:29:35;99.87;;;31.77;;
84084;SDS011;74175;41.730;44.734;2023-12-29T13:32:04;186.88;;;57.40;;
84084;SDS011;74175;41.730;44.734;2023-12-29T13:34:46;117.53;;;36.03;;
84084;SDS011;74175;41.730;44.734;2023-12-29T13:43:07;8.68;;;2.78;;
84084;SDS011;74175;41.730;44.734;2023-12-29T13:45:34;8.30;;;2.08;;
84084;SDS011;74175;41.730;44.734;2023-12-29T13:48:01;7.80;;;2.30;;
84084;SDS011;74175;41.730;44.734;2023-12-29T13:50:28;8.70;;;2.33;;
84084;SDS011;74175;41.730;44.734;2023-12-29T13:52:55;6.13;;;2.15;;
84084;SDS011;74175;41.730;44.734;2023-12-29T13:55:21;6.03;;;2.22;;
84084;SDS011;74175;41.730;44.734;2023-12-29T13:57:49;8.90;;;2.40;;
84084;SDS011;74175;41.730;44.734;2023-12-29T14:00:17;6.30;;;2.35;;
84084;SDS011;74175;41.730;44.734;2023-12-29T14:05:23;11.27;;;3.90;;
84084;SDS011;74175;41.730;44.734;2023-12-29T14:07:59;10.10;;;3.47;;
84084;SDS011;74175;41.730;44.734;2023-12-29T14:10:32;8.20;;;2.75;;
84084;SDS011;74175;41.730;44.734;2023-12-29T14:13:17;10.13;;;2.88;;
84084;SDS011;74175;41.730;44.734;2023-12-29T14:15:44;9.75;;;2.90;;
84084;SDS011;74175;41.730;44.734;2023-12-29T14:21:36;9.30;;;3.67;;
84084;SDS011;74175;41.730;44.734;2023-12-29T14:24:13;10.55;;;3.80;;
84084;SDS011;74175;41.730;44.734;2023-12-29T14:26:53;10.88;;;3.90;;
84084;SDS011;74175;41.730;44.734;2023-12-29T14:29:20;11.43;;;3.95;;
84084;SDS011;74175;41.730;44.734;2023-12-29T14:31:47;10.27;;;3.75;;
84084;SDS011;74175;41.730;44.734;2023-12-29T14:34:13;8.35;;;2.97;;
84084;SDS011;74175;41.730;44.734;2023-12-29T14:36:42;10.23;;;4.00;;
84084;SDS011;74175;41.730;44.734;2023-12-29T14:39:09;9.13;;;3.10;;
84084;SDS011;74175;41.730;44.734;2023-12-29T14:41:37;11.43;;;3.95;;
84084;SDS011;74175;41.730;44.734;2023-12-29T14:44:04;10.63;;;3.58;;
84084;SDS011;74175;41.730;44.734;2023-12-29T14:46:31;13.02;;;5.25;;
84084;SDS011;74175;41.730;44.734;2023-12-29T14:49:05;11.68;;;3.97;;
84084;SDS011;74175;41.730;44.734;2023-12-29T14:51:31;10.82;;;4.03;;
84084;SDS011;74175;41.730;44.734;2023-12-29T14:53:57;9.43;;;3.97;;
84084;SDS011;74175;41.730;44.734;2023-12-29T14:56:24;17.10;;;6.17;;
84084;SDS011;74175;41.730;44.734;2023-12-29T14:58:52;15.63;;;6.25;;
84084;SDS011;74175;41.730;44.734;2023-12-29T15:01:18;14.50;;;6.93;;
84084;SDS011;74175;41.730;44.734;2023-12-29T15:03:44;13.18;;;7.05;;
84084;SDS011;74175;41.730;44.734;2023-12-29T15:06:10;13.95;;;6.47;;